CheckWX is a tool to help pilots better visualize weather data.  It is not intended as a substitute for an official pre-flight weather briefing.

04:12:27 UTC

KBIS TAF
Bismarck Municipal Airport
Bismarck, North Dakota, USA
KBIS 060537Z 0606/0706 08006KT P6SM SCT028 OVC040 FM061300 VRB03KT P6SM OVC017 FM061900 12005KT P6SM BKN045 FM070300 VRB03KT P6SM VCSH OVC028

Apr-6@
06:00 UTC

Apr-6 @ 06:00 UTC

Apr-6@
13:00 UTC

Apr-6 @ 13:00 UTC

TAF KBIS 060537Z 0606/0706 08006KT P6SM SCT028 OVC040

Expired

Wind
  • 080° at 6 KTS
Cloud Levels
  • Scattered at 2,800' AGL
  • Overcast at 4,000' AGL

Apr-6@
13:00 UTC

Apr-6 @ 13:00 UTC

Apr-6@
19:00 UTC

Apr-6 @ 19:00 UTC

FM061300 VRB03KT P6SM OVC017

Expired

Wind
  • Variable at 3 KTS
Cloud Levels
  • Overcast at 1,700' AGL

Apr-6@
19:00 UTC

Apr-6 @ 19:00 UTC

Apr-7@
03:00 UTC

Apr-7 @ 03:00 UTC

FM061900 12005KT P6SM BKN045

Expired

Wind
  • 120° at 5 KTS
Cloud Levels
  • Broken at 4,500' AGL

Apr-7@
03:00 UTC

Apr-7 @ 03:00 UTC

Apr-7@
06:00 UTC

Apr-7 @ 06:00 UTC

FM070300 VRB03KT P6SM VCSH OVC028

From

From Standard forecast or significant change

Wind
  • Variable at 3 KTS
Conditions
Area Showers
Cloud Levels
  • Overcast at 2,800' AGL